sensor_id;sensor_type;location;lat;lon;timestamp;P1;durP1;ratioP1;P2;durP2;ratioP2
76210;SDS011;65003;49.518;11.280;2023-05-29T00:00:11;4.60;;;2.73;;
76210;SDS011;65003;49.518;11.280;2023-05-29T00:02:38;3.67;;;2.33;;
76210;SDS011;65003;49.518;11.280;2023-05-29T00:05:05;4.70;;;2.70;;
76210;SDS011;65003;49.518;11.280;2023-05-29T00:07:31;3.90;;;2.60;;
76210;SDS011;65003;49.518;11.280;2023-05-29T00:09:59;5.87;;;3.00;;
76210;SDS011;65003;49.518;11.280;2023-05-29T00:12:25;8.93;;;3.97;;
76210;SDS011;65003;49.518;11.280;2023-05-29T00:14:52;6.23;;;2.90;;
76210;SDS011;65003;49.518;11.280;2023-05-29T00:17:18;6.67;;;2.63;;
76210;SDS011;65003;49.518;11.280;2023-05-29T00:19:45;5.23;;;2.80;;
76210;SDS011;65003;49.518;11.280;2023-05-29T00:22:12;5.33;;;3.03;;
76210;SDS011;65003;49.518;11.280;2023-05-29T00:24:38;7.70;;;2.77;;
76210;SDS011;65003;49.518;11.280;2023-05-29T00:27:05;5.13;;;2.50;;
76210;SDS011;65003;49.518;11.280;2023-05-29T00:29:32;5.70;;;2.80;;
76210;SDS011;65003;49.518;11.280;2023-05-29T00:31:58;6.37;;;3.03;;
76210;SDS011;65003;49.518;11.280;2023-05-29T00:34:25;5.50;;;2.73;;
76210;SDS011;65003;49.518;11.280;2023-05-29T00:36:51;5.70;;;3.10;;
76210;SDS011;65003;49.518;11.280;2023-05-29T00:39:18;6.50;;;2.70;;
76210;SDS011;65003;49.518;11.280;2023-05-29T00:41:45;5.23;;;3.27;;
76210;SDS011;65003;49.518;11.280;2023-05-29T00:44:11;7.13;;;2.50;;
76210;SDS011;65003;49.518;11.280;2023-05-29T00:46:38;5.10;;;2.40;;
76210;SDS011;65003;49.518;11.280;2023-05-29T00:49:04;5.43;;;2.80;;
76210;SDS011;65003;49.518;11.280;2023-05-29T00:51:31;3.93;;;2.60;;
76210;SDS011;65003;49.518;11.280;2023-05-29T00:53:57;5.13;;;3.00;;
76210;SDS011;65003;49.518;11.280;2023-05-29T00:56:24;3.73;;;2.50;;
76210;SDS011;65003;49.518;11.280;2023-05-29T00:58:51;4.10;;;2.87;;
76210;SDS011;65003;49.518;11.280;2023-05-29T01:01:18;4.20;;;2.90;;
76210;SDS011;65003;49.518;11.280;2023-05-29T01:03:44;5.03;;;3.07;;
76210;SDS011;65003;49.518;11.280;2023-05-29T01:06:11;4.93;;;2.93;;
76210;SDS011;65003;49.518;11.280;2023-05-29T01:08:37;6.43;;;2.70;;
76210;SDS011;65003;49.518;11.280;2023-05-29T01:11:09;3.57;;;2.43;;
76210;SDS011;65003;49.518;11.280;2023-05-29T01:13:37;5.60;;;2.70;;
76210;SDS011;65003;49.518;11.280;2023-05-29T01:16:08;6.57;;;2.60;;
76210;SDS011;65003;49.518;11.280;2023-05-29T01:18:37;4.67;;;2.83;;
76210;SDS011;65003;49.518;11.280;2023-05-29T01:23:42;3.80;;;2.90;;
76210;SDS011;65003;49.518;11.280;2023-05-29T01:26:15;4.33;;;2.80;;
76210;SDS011;65003;49.518;11.280;2023-05-29T01:28:47;6.57;;;2.70;;
76210;SDS011;65003;49.518;11.280;2023-05-29T01:31:11;3.77;;;2.27;;
76210;SDS011;65003;49.518;11.280;2023-05-29T01:33:39;3.70;;;2.30;;
76210;SDS011;65003;49.518;11.280;2023-05-29T01:36:06;5.27;;;2.80;;
76210;SDS011;65003;49.518;11.280;2023-05-29T01:38:33;3.57;;;2.70;;
76210;SDS011;65003;49.518;11.280;2023-05-29T01:41:00;4.30;;;2.60;;
76210;SDS011;65003;49.518;11.280;2023-05-29T01:43:26;5.67;;;2.70;;
76210;SDS011;65003;49.518;11.280;2023-05-29T01:45:53;3.30;;;2.40;;
76210;SDS011;65003;49.518;11.280;2023-05-29T01:48:20;4.70;;;3.17;;
76210;SDS011;65003;49.518;11.280;2023-05-29T01:50:46;6.30;;;2.83;;
76210;SDS011;65003;49.518;11.280;2023-05-29T01:53:13;5.63;;;2.87;;
76210;SDS011;65003;49.518;11.280;2023-05-29T01:55:39;2.67;;;2.37;;
76210;SDS011;65003;49.518;11.280;2023-05-29T01:58:06;5.47;;;2.30;;
76210;SDS011;65003;49.518;11.280;2023-05-29T02:00:33;7.27;;;3.17;;
76210;SDS011;65003;49.518;11.280;2023-05-29T02:03:00;3.97;;;2.33;;
76210;SDS011;65003;49.518;11.280;2023-05-29T02:05:26;3.93;;;2.93;;
76210;SDS011;65003;49.518;11.280;2023-05-29T02:07:53;3.97;;;2.60;;
76210;SDS011;65003;49.518;11.280;2023-05-29T02:10:19;3.87;;;2.40;;
76210;SDS011;65003;49.518;11.280;2023-05-29T02:12:46;3.70;;;2.60;;
76210;SDS011;65003;49.518;11.280;2023-05-29T02:15:13;4.70;;;2.70;;
76210;SDS011;65003;49.518;11.280;2023-05-29T02:17:39;4.00;;;2.43;;
76210;SDS011;65003;49.518;11.280;2023-05-29T02:20:06;4.67;;;3.00;;
76210;SDS011;65003;49.518;11.280;2023-05-29T02:22:33;4.13;;;2.73;;
76210;SDS011;65003;49.518;11.280;2023-05-29T02:25:00;3.07;;;2.53;;
76210;SDS011;65003;49.518;11.280;2023-05-29T02:27:26;3.57;;;2.50;;
76210;SDS011;65003;49.518;11.280;2023-05-29T02:29:53;5.47;;;3.70;;
76210;SDS011;65003;49.518;11.280;2023-05-29T02:32:20;5.77;;;3.37;;
76210;SDS011;65003;49.518;11.280;2023-05-29T02:34:46;4.27;;;2.50;;
76210;SDS011;65003;49.518;11.280;2023-05-29T02:37:13;3.57;;;2.70;;
76210;SDS011;65003;49.518;11.280;2023-05-29T02:39:39;3.60;;;2.60;;
76210;SDS011;65003;49.518;11.280;2023-05-29T02:42:06;4.50;;;2.70;;
76210;SDS011;65003;49.518;11.280;2023-05-29T02:44:33;4.50;;;2.97;;
76210;SDS011;65003;49.518;11.280;2023-05-29T02:46:59;6.23;;;2.60;;
76210;SDS011;65003;49.518;11.280;2023-05-29T02:49:26;4.67;;;3.03;;
76210;SDS011;65003;49.518;11.280;2023-05-29T02:51:52;4.87;;;3.00;;
76210;SDS011;65003;49.518;11.280;2023-05-29T02:54:19;4.33;;;3.20;;
76210;SDS011;65003;49.518;11.280;2023-05-29T02:56:46;4.00;;;2.93;;
76210;SDS011;65003;49.518;11.280;2023-05-29T02:59:12;6.03;;;3.03;;
76210;SDS011;65003;49.518;11.280;2023-05-29T03:01:39;4.00;;;2.63;;
76210;SDS011;65003;49.518;11.280;2023-05-29T03:04:05;5.33;;;2.70;;
76210;SDS011;65003;49.518;11.280;2023-05-29T03:06:32;7.20;;;2.63;;
76210;SDS011;65003;49.518;11.280;2023-05-29T03:08:59;6.03;;;3.17;;
76210;SDS011;65003;49.518;11.280;2023-05-29T03:11:25;4.30;;;2.60;;
76210;SDS011;65003;49.518;11.280;2023-05-29T03:13:52;6.23;;;2.90;;
76210;SDS011;65003;49.518;11.280;2023-05-29T03:16:18;4.63;;;2.63;;
76210;SDS011;65003;49.518;11.280;2023-05-29T03:18:45;5.77;;;3.03;;
76210;SDS011;65003;49.518;11.280;2023-05-29T03:21:12;5.80;;;3.13;;
76210;SDS011;65003;49.518;11.280;2023-05-29T03:23:38;6.00;;;3.33;;
76210;SDS011;65003;49.518;11.280;2023-05-29T03:26:05;6.53;;;2.60;;
76210;SDS011;65003;49.518;11.280;2023-05-29T03:28:31;4.87;;;3.30;;
76210;SDS011;65003;49.518;11.280;2023-05-29T03:30:58;3.97;;;2.97;;
76210;SDS011;65003;49.518;11.280;2023-05-29T03:33:25;4.07;;;3.00;;
76210;SDS011;65003;49.518;11.280;2023-05-29T03:35:51;4.17;;;2.40;;
76210;SDS011;65003;49.518;11.280;2023-05-29T03:38:18;4.60;;;2.90;;
76210;SDS011;65003;49.518;11.280;2023-05-29T03:40:45;4.07;;;2.80;;
76210;SDS011;65003;49.518;11.280;2023-05-29T03:43:11;4.83;;;2.67;;
76210;SDS011;65003;49.518;11.280;2023-05-29T03:45:38;5.33;;;3.00;;
76210;SDS011;65003;49.518;11.280;2023-05-29T03:48:04;5.43;;;3.00;;
76210;SDS011;65003;49.518;11.280;2023-05-29T03:50:31;5.70;;;3.03;;
76210;SDS011;65003;49.518;11.280;2023-05-29T03:52:58;3.77;;;2.77;;
76210;SDS011;65003;49.518;11.280;2023-05-29T03:55:25;6.27;;;3.00;;
76210;SDS011;65003;49.518;11.280;2023-05-29T03:57:51;4.80;;;3.10;;
76210;SDS011;65003;49.518;11.280;2023-05-29T04:00:17;7.23;;;3.13;;
76210;SDS011;65003;49.518;11.280;2023-05-29T04:02:44;5.70;;;2.80;;
76210;SDS011;65003;49.518;11.280;2023-05-29T04:05:11;5.00;;;2.57;;
76210;SDS011;65003;49.518;11.280;2023-05-29T04:07:37;5.97;;;2.87;;
76210;SDS011;65003;49.518;11.280;2023-05-29T04:10:04;5.10;;;2.93;;
76210;SDS011;65003;49.518;11.280;2023-05-29T04:12:32;5.47;;;3.00;;
76210;SDS011;65003;49.518;11.280;2023-05-29T04:14:59;5.83;;;2.90;;
76210;SDS011;65003;49.518;11.280;2023-05-29T04:17:25;5.70;;;2.90;;
76210;SDS011;65003;49.518;11.280;2023-05-29T04:19:52;5.03;;;2.70;;
76210;SDS011;65003;49.518;11.280;2023-05-29T04:22:18;5.33;;;3.07;;
76210;SDS011;65003;49.518;11.280;2023-05-29T04:24:45;4.30;;;2.97;;
76210;SDS011;65003;49.518;11.280;2023-05-29T04:27:12;4.67;;;3.00;;
76210;SDS011;65003;49.518;11.280;2023-05-29T04:29:39;5.87;;;2.90;;
76210;SDS011;65003;49.518;11.280;2023-05-29T04:32:06;5.43;;;3.17;;
76210;SDS011;65003;49.518;11.280;2023-05-29T04:34:32;5.97;;;3.20;;
76210;SDS011;65003;49.518;11.280;2023-05-29T04:36:59;6.77;;;3.07;;
76210;SDS011;65003;49.518;11.280;2023-05-29T04:39:25;6.90;;;3.40;;
76210;SDS011;65003;49.518;11.280;2023-05-29T04:41:52;4.67;;;3.07;;
76210;SDS011;65003;49.518;11.280;2023-05-29T04:44:19;7.77;;;3.67;;
76210;SDS011;65003;49.518;11.280;2023-05-29T04:46:45;5.13;;;3.30;;
76210;SDS011;65003;49.518;11.280;2023-05-29T04:49:12;3.83;;;3.23;;
76210;SDS011;65003;49.518;11.280;2023-05-29T04:51:39;3.30;;;2.50;;
76210;SDS011;65003;49.518;11.280;2023-05-29T04:54:07;4.73;;;2.80;;
76210;SDS011;65003;49.518;11.280;2023-05-29T04:56:33;6.27;;;3.20;;
76210;SDS011;65003;49.518;11.280;2023-05-29T04:58:59;5.97;;;3.17;;
76210;SDS011;65003;49.518;11.280;2023-05-29T05:01:26;4.83;;;3.07;;
76210;SDS011;65003;49.518;11.280;2023-05-29T05:03:53;6.13;;;3.03;;
76210;SDS011;65003;49.518;11.280;2023-05-29T05:06:19;4.30;;;3.27;;
76210;SDS011;65003;49.518;11.280;2023-05-29T05:08:46;6.60;;;2.90;;
76210;SDS011;65003;49.518;11.280;2023-05-29T05:11:13;7.17;;;3.27;;
76210;SDS011;65003;49.518;11.280;2023-05-29T05:13:39;8.07;;;3.93;;
76210;SDS011;65003;49.518;11.280;2023-05-29T05:16:06;6.73;;;3.30;;
76210;SDS011;65003;49.518;11.280;2023-05-29T05:18:32;5.93;;;3.10;;
76210;SDS011;65003;49.518;11.280;2023-05-29T05:20:59;4.73;;;3.23;;
76210;SDS011;65003;49.518;11.280;2023-05-29T05:23:25;8.17;;;3.20;;
76210;SDS011;65003;49.518;11.280;2023-05-29T05:25:52;3.70;;;2.97;;
76210;SDS011;65003;49.518;11.280;2023-05-29T05:28:19;4.73;;;3.17;;
76210;SDS011;65003;49.518;11.280;2023-05-29T05:30:46;9.17;;;3.40;;
76210;SDS011;65003;49.518;11.280;2023-05-29T05:33:12;6.27;;;3.93;;
76210;SDS011;65003;49.518;11.280;2023-05-29T05:35:39;5.17;;;3.50;;
76210;SDS011;65003;49.518;11.280;2023-05-29T05:38:06;3.80;;;3.10;;
76210;SDS011;65003;49.518;11.280;2023-05-29T05:40:32;3.87;;;2.40;;
76210;SDS011;65003;49.518;11.280;2023-05-29T05:42:59;7.10;;;2.90;;
76210;SDS011;65003;49.518;11.280;2023-05-29T05:45:26;4.63;;;2.97;;
76210;SDS011;65003;49.518;11.280;2023-05-29T05:47:52;3.70;;;3.23;;
76210;SDS011;65003;49.518;11.280;2023-05-29T05:50:19;5.93;;;2.70;;
76210;SDS011;65003;49.518;11.280;2023-05-29T05:52:45;4.97;;;2.40;;
76210;SDS011;65003;49.518;11.280;2023-05-29T05:55:12;5.27;;;3.10;;
76210;SDS011;65003;49.518;11.280;2023-05-29T05:57:39;4.87;;;2.70;;
76210;SDS011;65003;49.518;11.280;2023-05-29T06:00:05;4.00;;;2.63;;
76210;SDS011;65003;49.518;11.280;2023-05-29T06:02:33;3.57;;;2.57;;
76210;SDS011;65003;49.518;11.280;2023-05-29T06:05:00;4.30;;;2.83;;
76210;SDS011;65003;49.518;11.280;2023-05-29T06:07:26;4.87;;;2.87;;
76210;SDS011;65003;49.518;11.280;2023-05-29T06:09:53;8.10;;;2.80;;
76210;SDS011;65003;49.518;11.280;2023-05-29T06:12:20;3.97;;;2.87;;
76210;SDS011;65003;49.518;11.280;2023-05-29T06:14:46;4.13;;;2.87;;
76210;SDS011;65003;49.518;11.280;2023-05-29T06:17:13;4.23;;;2.70;;
76210;SDS011;65003;49.518;11.280;2023-05-29T06:19:40;3.87;;;2.73;;
76210;SDS011;65003;49.518;11.280;2023-05-29T06:22:07;5.23;;;2.50;;
76210;SDS011;65003;49.518;11.280;2023-05-29T06:24:34;3.93;;;3.17;;
76210;SDS011;65003;49.518;11.280;2023-05-29T06:27:00;4.73;;;2.40;;
76210;SDS011;65003;49.518;11.280;2023-05-29T06:29:27;5.47;;;2.77;;
76210;SDS011;65003;49.518;11.280;2023-05-29T06:31:53;4.47;;;2.70;;
76210;SDS011;65003;49.518;11.280;2023-05-29T06:34:20;8.90;;;3.00;;
76210;SDS011;65003;49.518;11.280;2023-05-29T06:36:46;4.13;;;2.80;;
76210;SDS011;65003;49.518;11.280;2023-05-29T06:39:13;6.90;;;2.70;;
76210;SDS011;65003;49.518;11.280;2023-05-29T06:41:40;3.73;;;2.53;;
76210;SDS011;65003;49.518;11.280;2023-05-29T06:44:06;4.67;;;2.40;;
76210;SDS011;65003;49.518;11.280;2023-05-29T06:46:33;5.07;;;2.97;;
76210;SDS011;65003;49.518;11.280;2023-05-29T06:48:59;2.83;;;2.33;;
76210;SDS011;65003;49.518;11.280;2023-05-29T06:51:26;4.00;;;2.47;;
76210;SDS011;65003;49.518;11.280;2023-05-29T06:53:53;3.00;;;2.37;;
76210;SDS011;65003;49.518;11.280;2023-05-29T06:56:19;6.50;;;2.40;;
76210;SDS011;65003;49.518;11.280;2023-05-29T06:58:46;4.23;;;2.53;;
76210;SDS011;65003;49.518;11.280;2023-05-29T07:01:12;3.83;;;2.50;;
76210;SDS011;65003;49.518;11.280;2023-05-29T07:03:39;3.17;;;2.40;;
76210;SDS011;65003;49.518;11.280;2023-05-29T07:06:06;4.33;;;2.63;;
76210;SDS011;65003;49.518;11.280;2023-05-29T07:08:32;3.17;;;2.53;;
76210;SDS011;65003;49.518;11.280;2023-05-29T07:10:59;3.20;;;2.60;;
76210;SDS011;65003;49.518;11.280;2023-05-29T07:13:26;2.60;;;2.23;;
76210;SDS011;65003;49.518;11.280;2023-05-29T07:15:52;3.13;;;2.67;;
76210;SDS011;65003;49.518;11.280;2023-05-29T07:18:19;4.07;;;2.63;;
76210;SDS011;65003;49.518;11.280;2023-05-29T07:20:45;3.52;;;2.75;;
76210;SDS011;65003;49.518;11.280;2023-05-29T07:23:12;3.55;;;2.40;;
76210;SDS011;65003;49.518;11.280;2023-05-29T07:25:38;2.72;;;2.52;;
76210;SDS011;65003;49.518;11.280;2023-05-29T07:28:05;4.10;;;2.80;;
76210;SDS011;65003;49.518;11.280;2023-05-29T07:30:32;2.52;;;2.33;;
76210;SDS011;65003;49.518;11.280;2023-05-29T07:32:58;4.10;;;2.70;;
76210;SDS011;65003;49.518;11.280;2023-05-29T07:35:25;3.02;;;2.60;;
76210;SDS011;65003;49.518;11.280;2023-05-29T07:37:52;3.47;;;2.67;;
76210;SDS011;65003;49.518;11.280;2023-05-29T07:40:18;2.60;;;2.40;;
76210;SDS011;65003;49.518;11.280;2023-05-29T07:42:45;4.75;;;2.52;;
76210;SDS011;65003;49.518;11.280;2023-05-29T07:45:11;2.40;;;2.20;;
76210;SDS011;65003;49.518;11.280;2023-05-29T07:47:38;3.55;;;3.00;;
76210;SDS011;65003;49.518;11.280;2023-05-29T07:50:05;3.17;;;2.40;;
76210;SDS011;65003;49.518;11.280;2023-05-29T07:52:32;3.05;;;2.75;;
76210;SDS011;65003;49.518;11.280;2023-05-29T07:54:58;4.60;;;2.92;;
76210;SDS011;65003;49.518;11.280;2023-05-29T07:57:25;3.52;;;2.80;;
76210;SDS011;65003;49.518;11.280;2023-05-29T07:59:51;3.75;;;2.42;;
76210;SDS011;65003;49.518;11.280;2023-05-29T08:02:18;2.85;;;2.50;;
76210;SDS011;65003;49.518;11.280;2023-05-29T08:04:45;4.47;;;2.70;;
76210;SDS011;65003;49.518;11.280;2023-05-29T08:07:11;3.67;;;2.25;;
76210;SDS011;65003;49.518;11.280;2023-05-29T08:09:38;2.83;;;2.40;;
76210;SDS011;65003;49.518;11.280;2023-05-29T08:12:05;3.17;;;2.57;;
76210;SDS011;65003;49.518;11.280;2023-05-29T08:14:31;3.53;;;2.10;;
76210;SDS011;65003;49.518;11.280;2023-05-29T08:16:58;5.20;;;2.57;;
76210;SDS011;65003;49.518;11.280;2023-05-29T08:19:25;3.53;;;2.50;;
76210;SDS011;65003;49.518;11.280;2023-05-29T08:21:51;5.03;;;2.80;;
76210;SDS011;65003;49.518;11.280;2023-05-29T08:24:18;4.70;;;2.50;;
76210;SDS011;65003;49.518;11.280;2023-05-29T08:26:45;4.03;;;2.43;;
76210;SDS011;65003;49.518;11.280;2023-05-29T08:29:12;2.70;;;2.50;;
76210;SDS011;65003;49.518;11.280;2023-05-29T08:31:38;2.50;;;2.30;;
76210;SDS011;65003;49.518;11.280;2023-05-29T08:34:06;4.00;;;2.83;;
76210;SDS011;65003;49.518;11.280;2023-05-29T08:36:33;3.30;;;2.60;;
76210;SDS011;65003;49.518;11.280;2023-05-29T08:38:59;2.52;;;2.30;;
76210;SDS011;65003;49.518;11.280;2023-05-29T08:44:11;3.50;;;2.70;;
76210;SDS011;65003;49.518;11.280;2023-05-29T08:46:37;3.75;;;2.37;;
76210;SDS011;65003;49.518;11.280;2023-05-29T08:49:03;4.42;;;2.60;;
76210;SDS011;65003;49.518;11.280;2023-05-29T08:51:31;4.43;;;2.43;;
76210;SDS011;65003;49.518;11.280;2023-05-29T08:53:56;3.93;;;2.57;;
76210;SDS011;65003;49.518;11.280;2023-05-29T08:56:23;3.63;;;2.53;;
76210;SDS011;65003;49.518;11.280;2023-05-29T08:58:49;3.30;;;2.20;;
76210;SDS011;65003;49.518;11.280;2023-05-29T09:01:16;3.40;;;2.33;;
76210;SDS011;65003;49.518;11.280;2023-05-29T09:03:43;2.97;;;2.30;;
76210;SDS011;65003;49.518;11.280;2023-05-29T09:06:09;4.23;;;2.43;;
76210;SDS011;65003;49.518;11.280;2023-05-29T09:08:36;5.30;;;2.30;;
76210;SDS011;65003;49.518;11.280;2023-05-29T09:11:03;5.43;;;2.60;;
76210;SDS011;65003;49.518;11.280;2023-05-29T09:13:29;3.53;;;2.40;;
76210;SDS011;65003;49.518;11.280;2023-05-29T09:15:57;4.23;;;1.97;;
76210;SDS011;65003;49.518;11.280;2023-05-29T09:18:23;3.70;;;2.43;;
76210;SDS011;65003;49.518;11.280;2023-05-29T09:20:50;4.47;;;2.20;;
76210;SDS011;65003;49.518;11.280;2023-05-29T09:23:16;3.30;;;2.33;;
76210;SDS011;65003;49.518;11.280;2023-05-29T09:25:43;4.20;;;2.53;;
76210;SDS011;65003;49.518;11.280;2023-05-29T09:28:10;6.10;;;2.97;;
76210;SDS011;65003;49.518;11.280;2023-05-29T09:30:39;2.97;;;2.17;;
76210;SDS011;65003;49.518;11.280;2023-05-29T09:33:07;5.60;;;2.40;;
76210;SDS011;65003;49.518;11.280;2023-05-29T09:35:33;5.43;;;2.53;;
76210;SDS011;65003;49.518;11.280;2023-05-29T09:38:02;2.47;;;2.23;;
76210;SDS011;65003;49.518;11.280;2023-05-29T09:40:29;4.10;;;2.30;;
76210;SDS011;65003;49.518;11.280;2023-05-29T09:42:55;3.73;;;2.40;;
76210;SDS011;65003;49.518;11.280;2023-05-29T09:45:22;2.90;;;2.53;;
76210;SDS011;65003;49.518;11.280;2023-05-29T09:47:50;2.60;;;2.37;;
76210;SDS011;65003;49.518;11.280;2023-05-29T09:50:18;7.20;;;2.27;;
76210;SDS011;65003;49.518;11.280;2023-05-29T09:52:44;2.87;;;2.17;;
76210;SDS011;65003;49.518;11.280;2023-05-29T09:55:10;2.30;;;2.00;;
76210;SDS011;65003;49.518;11.280;2023-05-29T09:57:37;3.70;;;2.67;;
76210;SDS011;65003;49.518;11.280;2023-05-29T10:00:04;4.83;;;3.03;;
76210;SDS011;65003;49.518;11.280;2023-05-29T10:02:31;3.30;;;2.33;;
76210;SDS011;65003;49.518;11.280;2023-05-29T10:04:58;3.17;;;2.37;;
76210;SDS011;65003;49.518;11.280;2023-05-29T10:07:25;2.27;;;2.00;;
76210;SDS011;65003;49.518;11.280;2023-05-29T10:09:52;2.50;;;2.20;;
76210;SDS011;65003;49.518;11.280;2023-05-29T10:12:19;3.30;;;2.13;;
76210;SDS011;65003;49.518;11.280;2023-05-29T10:14:44;2.53;;;2.17;;
76210;SDS011;65003;49.518;11.280;2023-05-29T10:17:11;4.03;;;2.57;;
76210;SDS011;65003;49.518;11.280;2023-05-29T10:19:38;3.23;;;2.43;;
76210;SDS011;65003;49.518;11.280;2023-05-29T10:22:04;5.73;;;1.90;;
76210;SDS011;65003;49.518;11.280;2023-05-29T10:24:32;3.93;;;2.93;;
76210;SDS011;65003;49.518;11.280;2023-05-29T10:26:58;3.13;;;2.43;;
76210;SDS011;65003;49.518;11.280;2023-05-29T10:29:28;2.50;;;2.30;;
76210;SDS011;65003;49.518;11.280;2023-05-29T10:32:08;3.47;;;2.30;;
76210;SDS011;65003;49.518;11.280;2023-05-29T10:35:13;6.07;;;2.50;;
76210;SDS011;65003;49.518;11.280;2023-05-29T10:37:40;4.60;;;2.00;;
76210;SDS011;65003;49.518;11.280;2023-05-29T10:40:09;7.17;;;2.23;;
76210;SDS011;65003;49.518;11.280;2023-05-29T10:42:44;3.80;;;2.20;;
76210;SDS011;65003;49.518;11.280;2023-05-29T10:45:09;2.50;;;2.20;;
76210;SDS011;65003;49.518;11.280;2023-05-29T10:47:38;5.53;;;2.60;;
76210;SDS011;65003;49.518;11.280;2023-05-29T10:50:04;4.70;;;1.97;;
76210;SDS011;65003;49.518;11.280;2023-05-29T10:52:32;3.77;;;2.20;;
76210;SDS011;65003;49.518;11.280;2023-05-29T10:54:58;3.47;;;1.90;;
76210;SDS011;65003;49.518;11.280;2023-05-29T10:57:24;3.13;;;1.83;;
76210;SDS011;65003;49.518;11.280;2023-05-29T10:59:58;3.50;;;2.40;;
76210;SDS011;65003;49.518;11.280;2023-05-29T11:02:25;4.43;;;2.00;;
76210;SDS011;65003;49.518;11.280;2023-05-29T11:07:33;4.27;;;1.90;;
76210;SDS011;65003;49.518;11.280;2023-05-29T11:12:55;2.10;;;1.87;;
76210;SDS011;65003;49.518;11.280;2023-05-29T11:15:05;4.87;;;1.93;;
76210;SDS011;65003;49.518;11.280;2023-05-29T11:17:32;2.93;;;1.90;;
76210;SDS011;65003;49.518;11.280;2023-05-29T11:20:00;3.77;;;2.00;;
76210;SDS011;65003;49.518;11.280;2023-05-29T11:22:29;4.53;;;1.97;;
76210;SDS011;65003;49.518;11.280;2023-05-29T11:24:54;2.47;;;1.93;;
76210;SDS011;65003;49.518;11.280;2023-05-29T11:27:20;2.13;;;1.90;;
76210;SDS011;65003;49.518;11.280;2023-05-29T11:29:48;2.50;;;2.00;;
76210;SDS011;65003;49.518;11.280;2023-05-29T11:32:14;3.57;;;1.97;;
76210;SDS011;65003;49.518;11.280;2023-05-29T11:34:40;2.40;;;2.07;;
76210;SDS011;65003;49.518;11.280;2023-05-29T11:37:07;1.80;;;1.70;;
76210;SDS011;65003;49.518;11.280;2023-05-29T11:39:36;2.23;;;2.03;;
76210;SDS011;65003;49.518;11.280;2023-05-29T11:42:02;3.37;;;2.00;;
76210;SDS011;65003;49.518;11.280;2023-05-29T11:44:29;3.57;;;2.33;;
76210;SDS011;65003;49.518;11.280;2023-05-29T11:47:04;2.63;;;2.07;;
76210;SDS011;65003;49.518;11.280;2023-05-29T11:49:31;2.87;;;2.07;;
76210;SDS011;65003;49.518;11.280;2023-05-29T11:54:35;4.23;;;2.30;;
76210;SDS011;65003;49.518;11.280;2023-05-29T11:57:02;3.13;;;2.00;;
76210;SDS011;65003;49.518;11.280;2023-05-29T11:59:28;1.90;;;1.70;;
76210;SDS011;65003;49.518;11.280;2023-05-29T12:01:55;3.77;;;2.07;;
76210;SDS011;65003;49.518;11.280;2023-05-29T12:04:21;4.83;;;2.00;;
76210;SDS011;65003;49.518;11.280;2023-05-29T12:06:48;1.97;;;1.60;;
76210;SDS011;65003;49.518;11.280;2023-05-29T12:11:50;2.70;;;1.60;;
76210;SDS011;65003;49.518;11.280;2023-05-29T12:14:15;2.33;;;1.70;;
76210;SDS011;65003;49.518;11.280;2023-05-29T12:16:42;3.53;;;2.00;;
76210;SDS011;65003;49.518;11.280;2023-05-29T12:19:08;2.00;;;1.60;;
76210;SDS011;65003;49.518;11.280;2023-05-29T12:21:35;3.57;;;1.90;;
76210;SDS011;65003;49.518;11.280;2023-05-29T12:24:02;2.33;;;1.70;;
76210;SDS011;65003;49.518;11.280;2023-05-29T12:26:29;4.17;;;2.00;;
76210;SDS011;65003;49.518;11.280;2023-05-29T12:28:55;2.83;;;2.10;;
76210;SDS011;65003;49.518;11.280;2023-05-29T12:31:27;2.87;;;2.27;;
76210;SDS011;65003;49.518;11.280;2023-05-29T12:33:58;4.80;;;2.30;;
76210;SDS011;65003;49.518;11.280;2023-05-29T12:36:25;2.43;;;1.97;;
76210;SDS011;65003;49.518;11.280;2023-05-29T12:38:51;4.67;;;2.20;;
76210;SDS011;65003;49.518;11.280;2023-05-29T12:41:23;3.23;;;1.80;;
76210;SDS011;65003;49.518;11.280;2023-05-29T12:43:52;4.10;;;1.63;;
76210;SDS011;65003;49.518;11.280;2023-05-29T12:46:18;4.17;;;1.93;;
76210;SDS011;65003;49.518;11.280;2023-05-29T12:48:45;3.73;;;2.10;;
76210;SDS011;65003;49.518;11.280;2023-05-29T12:51:12;3.63;;;1.80;;
76210;SDS011;65003;49.518;11.280;2023-05-29T12:53:38;3.90;;;2.00;;
76210;SDS011;65003;49.518;11.280;2023-05-29T12:56:05;2.40;;;1.60;;
76210;SDS011;65003;49.518;11.280;2023-05-29T12:58:31;3.33;;;2.03;;
76210;SDS011;65003;49.518;11.280;2023-05-29T13:00:58;2.67;;;2.00;;
76210;SDS011;65003;49.518;11.280;2023-05-29T13:03:24;2.97;;;2.10;;
76210;SDS011;65003;49.518;11.280;2023-05-29T13:05:51;3.13;;;1.93;;
76210;SDS011;65003;49.518;11.280;2023-05-29T13:08:19;3.00;;;2.07;;
76210;SDS011;65003;49.518;11.280;2023-05-29T13:10:45;5.23;;;1.77;;
76210;SDS011;65003;49.518;11.280;2023-05-29T13:13:11;4.50;;;2.20;;
76210;SDS011;65003;49.518;11.280;2023-05-29T13:15:38;5.03;;;1.87;;
76210;SDS011;65003;49.518;11.280;2023-05-29T13:18:05;4.83;;;1.77;;
76210;SDS011;65003;49.518;11.280;2023-05-29T13:20:31;2.37;;;2.00;;
76210;SDS011;65003;49.518;11.280;2023-05-29T13:22:58;4.97;;;2.43;;
76210;SDS011;65003;49.518;11.280;2023-05-29T13:25:24;2.57;;;1.87;;
76210;SDS011;65003;49.518;11.280;2023-05-29T13:27:51;3.10;;;2.10;;
76210;SDS011;65003;49.518;11.280;2023-05-29T13:30:17;3.53;;;2.23;;
76210;SDS011;65003;49.518;11.280;2023-05-29T13:32:44;3.23;;;2.10;;
76210;SDS011;65003;49.518;11.280;2023-05-29T13:35:11;3.63;;;1.80;;
76210;SDS011;65003;49.518;11.280;2023-05-29T13:37:37;2.30;;;2.07;;
76210;SDS011;65003;49.518;11.280;2023-05-29T13:40:04;6.57;;;2.00;;
76210;SDS011;65003;49.518;11.280;2023-05-29T13:42:32;3.67;;;1.77;;
76210;SDS011;65003;49.518;11.280;2023-05-29T13:44:58;3.07;;;1.80;;
76210;SDS011;65003;49.518;11.280;2023-05-29T13:47:25;3.60;;;2.40;;
76210;SDS011;65003;49.518;11.280;2023-05-29T13:49:51;5.20;;;2.10;;
76210;SDS011;65003;49.518;11.280;2023-05-29T13:52:18;3.67;;;1.93;;
76210;SDS011;65003;49.518;11.280;2023-05-29T13:54:44;2.07;;;1.80;;
76210;SDS011;65003;49.518;11.280;2023-05-29T13:57:11;3.27;;;2.07;;
76210;SDS011;65003;49.518;11.280;2023-05-29T13:59:38;2.03;;;1.77;;
76210;SDS011;65003;49.518;11.280;2023-05-29T14:02:04;3.23;;;2.00;;
76210;SDS011;65003;49.518;11.280;2023-05-29T14:04:31;4.37;;;2.00;;
76210;SDS011;65003;49.518;11.280;2023-05-29T14:06:57;2.73;;;2.10;;
76210;SDS011;65003;49.518;11.280;2023-05-29T14:09:24;5.40;;;1.80;;
76210;SDS011;65003;49.518;11.280;2023-05-29T14:11:55;2.10;;;1.83;;
76210;SDS011;65003;49.518;11.280;2023-05-29T14:14:21;2.40;;;1.77;;
76210;SDS011;65003;49.518;11.280;2023-05-29T14:16:47;3.23;;;1.77;;
76210;SDS011;65003;49.518;11.280;2023-05-29T14:19:14;2.37;;;2.17;;
76210;SDS011;65003;49.518;11.280;2023-05-29T14:21:40;3.20;;;1.80;;
76210;SDS011;65003;49.518;11.280;2023-05-29T14:24:07;2.60;;;1.83;;
76210;SDS011;65003;49.518;11.280;2023-05-29T14:26:34;3.57;;;2.00;;
76210;SDS011;65003;49.518;11.280;2023-05-29T14:29:00;2.40;;;2.20;;
76210;SDS011;65003;49.518;11.280;2023-05-29T14:31:27;2.97;;;2.23;;
76210;SDS011;65003;49.518;11.280;2023-05-29T14:33:53;3.93;;;2.00;;
76210;SDS011;65003;49.518;11.280;2023-05-29T14:36:20;2.63;;;1.90;;
76210;SDS011;65003;49.518;11.280;2023-05-29T14:38:47;3.37;;;1.70;;
76210;SDS011;65003;49.518;11.280;2023-05-29T14:41:13;3.97;;;2.17;;
76210;SDS011;65003;49.518;11.280;2023-05-29T14:43:41;3.07;;;2.23;;
76210;SDS011;65003;49.518;11.280;2023-05-29T14:46:08;3.97;;;2.10;;